createdAt,value
2023-04-18T00:02:17.795Z,101613.85
2023-04-18T00:05:47.656Z,101616.91
2023-04-18T00:09:12.906Z,101620.50
2023-04-18T00:12:40.173Z,101616.42
2023-04-18T00:16:08.812Z,101616.73
2023-04-18T00:19:35.821Z,101614.00
2023-04-18T00:23:02.657Z,101611.80
2023-04-18T00:26:29.556Z,101614.20
2023-04-18T00:29:57.256Z,101617.67
2023-04-18T00:33:24.076Z,101611.74
2023-04-18T00:36:51.972Z,101615.46
2023-04-18T00:40:18.772Z,101611.99
2023-04-18T00:43:45.804Z,101614.31
2023-04-18T00:47:13.004Z,101617.97
2023-04-18T00:50:41.636Z,101606.41
2023-04-18T00:54:13.218Z,101608.86
2023-04-18T00:57:40.446Z,101604.05
2023-04-18T01:01:08.237Z,101601.84
2023-04-18T01:04:35.710Z,101602.16
2023-04-18T01:08:03.015Z,101599.58
2023-04-18T01:11:30.042Z,101595.45
2023-04-18T01:14:57.306Z,101594.02
2023-04-18T01:18:24.511Z,101599.09
2023-04-18T01:21:53.478Z,101595.39
2023-04-18T01:25:20.558Z,101599.84
2023-04-18T01:28:47.603Z,101604.13
2023-04-18T01:32:14.457Z,101604.07
2023-04-18T01:35:41.538Z,101602.63
2023-04-18T01:39:09.479Z,101601.52
2023-04-18T01:42:36.325Z,101604.41
2023-04-18T01:46:03.436Z,101599.50
2023-04-18T01:49:30.671Z,101605.32
2023-04-18T01:52:57.457Z,101602.48
2023-04-18T01:56:24.407Z,101604.70
2023-04-18T01:59:51.502Z,101602.77
2023-04-18T02:03:18.647Z,101603.56
2023-04-18T02:06:45.819Z,101599.18
2023-04-18T02:10:13.879Z,101603.36
2023-04-18T02:13:40.857Z,101602.00
2023-04-18T02:17:08.087Z,101602.05
2023-04-18T02:20:36.382Z,101601.08
2023-04-18T02:24:03.164Z,101603.54
2023-04-18T02:27:30.333Z,101601.49
2023-04-18T02:30:57.325Z,101598.52
2023-04-18T02:34:24.178Z,101595.05
2023-04-18T02:37:51.236Z,101594.29
2023-04-18T02:41:19.605Z,101599.06
2023-04-18T02:44:47.158Z,101598.29
2023-04-18T02:48:14.571Z,101597.38
2023-04-18T02:51:41.792Z,101598.23
2023-04-18T02:55:09.893Z,101595.23
2023-04-18T02:58:39.000Z,101599.23
2023-04-18T03:02:35.573Z,101594.53
2023-04-18T03:06:12.775Z,101600.23
2023-04-18T03:09:40.142Z,101598.48
2023-04-18T03:13:16.329Z,101600.54
2023-04-18T03:16:44.095Z,101602.20
2023-04-18T03:20:13.706Z,101601.30
2023-04-18T03:23:40.925Z,101601.98
2023-04-18T03:27:08.334Z,101599.38
2023-04-18T03:30:37.419Z,101599.42
2023-04-18T03:34:05.232Z,101601.85
2023-04-18T03:37:32.446Z,101602.08
2023-04-18T03:41:00.444Z,101601.88
2023-04-18T03:44:32.543Z,101606.23
2023-04-18T03:47:59.434Z,101607.13
2023-04-18T03:51:27.473Z,101604.54
2023-04-18T03:54:54.526Z,101606.67
2023-04-18T03:58:25.006Z,101608.70
2023-04-18T04:01:55.970Z,101604.95
2023-04-18T04:05:23.216Z,101608.20
2023-04-18T04:08:50.897Z,101606.41
2023-04-18T04:12:21.377Z,101610.63
2023-04-18T04:15:48.345Z,101609.39
2023-04-18T04:19:16.157Z,101610.56
2023-04-18T04:22:54.002Z,101616.91
2023-04-18T04:26:23.347Z,101615.33
2023-04-18T04:29:57.908Z,101614.63
2023-04-18T04:33:28.727Z,101615.25
2023-04-18T04:37:00.871Z,101623.92
2023-04-18T04:40:28.617Z,101616.94
2023-04-18T04:44:04.936Z,101612.41
2023-04-18T04:47:34.258Z,101614.64
2023-04-18T04:51:02.467Z,101617.42
2023-04-18T04:54:29.524Z,101623.06
2023-04-18T04:57:57.480Z,101628.74
2023-04-18T05:01:38.861Z,101630.14
2023-04-18T05:05:06.764Z,101629.28
2023-04-18T05:08:34.130Z,101629.85
2023-04-18T05:12:03.527Z,101633.81
2023-04-18T05:15:30.722Z,101636.42
2023-04-18T05:18:57.620Z,101639.14
2023-04-18T05:22:24.474Z,101639.61
2023-04-18T05:25:51.628Z,101642.83
2023-04-18T05:29:18.563Z,101639.84
2023-04-18T05:32:45.836Z,101637.05
2023-04-18T05:36:13.381Z,101636.24
2023-04-18T05:39:40.544Z,101641.73
2023-04-18T05:43:07.683Z,101641.54
2023-04-18T05:46:34.856Z,101641.34
2023-04-18T05:50:01.791Z,101642.52
2023-04-18T05:53:29.022Z,101639.15
2023-04-18T05:56:57.137Z,101634.38
2023-04-18T06:00:25.057Z,101646.34
2023-04-18T06:03:52.160Z,101639.55
2023-04-18T06:07:19.451Z,101639.70
2023-04-18T06:10:46.440Z,101640.64
2023-04-18T06:14:13.727Z,101643.17
2023-04-18T06:17:40.851Z,101640.42
2023-04-18T06:21:08.608Z,101640.64
2023-04-18T06:24:35.707Z,101643.69
2023-04-18T06:28:02.737Z,101646.31
2023-04-18T06:31:29.783Z,101647.75
2023-04-18T06:34:56.801Z,101644.37
2023-04-18T06:38:23.689Z,101641.37
2023-04-18T06:41:50.637Z,101646.35
2023-04-18T06:45:26.735Z,101647.73
2023-04-18T06:48:53.857Z,101646.43
2023-04-18T06:52:20.775Z,101652.41
2023-04-18T06:55:47.854Z,101648.73
2023-04-18T06:59:14.833Z,101650.14
2023-04-18T07:02:42.703Z,101655.67
2023-04-18T07:06:10.992Z,101655.28
2023-04-18T07:09:38.085Z,101655.32
2023-04-18T07:13:05.152Z,101658.42
2023-04-18T07:16:32.048Z,101669.52
2023-04-18T07:19:59.010Z,101665.25
2023-04-18T07:23:25.992Z,101670.80
2023-04-18T07:26:54.892Z,101675.05
2023-04-18T07:30:22.346Z,101668.18
2023-04-18T07:33:49.269Z,101681.84
2023-04-18T07:37:17.566Z,101676.69
2023-04-18T07:40:45.892Z,101678.00
2023-04-18T07:44:13.165Z,101679.78
2023-04-18T07:47:40.201Z,101684.23
2023-04-18T07:51:07.937Z,101687.17
2023-04-18T07:54:34.886Z,101683.70
2023-04-18T07:58:01.913Z,101684.90
2023-04-18T08:01:29.193Z,101686.41
2023-04-18T08:04:56.529Z,101696.47
2023-04-18T08:08:23.607Z,101691.77
2023-04-18T08:11:50.482Z,101689.56
2023-04-18T08:15:17.381Z,101690.42
2023-04-18T08:18:44.302Z,101693.42
2023-04-18T08:22:12.157Z,101692.20
2023-04-18T08:25:38.958Z,101699.13
2023-04-18T08:29:06.494Z,101699.94
2023-04-18T08:32:34.011Z,101702.35
2023-04-18T08:36:01.278Z,101696.96
2023-04-18T08:39:28.257Z,101699.40
2023-04-18T08:42:56.690Z,101700.53
2023-04-18T08:46:24.106Z,101702.70
2023-04-18T08:49:52.298Z,101693.54
2023-04-18T08:53:19.687Z,101693.77
2023-04-18T08:56:46.726Z,101693.95
2023-04-18T09:00:15.795Z,101696.72
2023-04-18T09:03:44.249Z,101694.65
2023-04-18T09:07:12.635Z,101697.63
2023-04-18T09:10:43.055Z,101695.91
2023-04-18T09:14:24.638Z,101692.81
2023-04-18T09:17:54.023Z,101700.22
2023-04-18T09:21:21.772Z,101689.80
2023-04-18T09:24:58.654Z,101686.17
2023-04-18T09:28:28.200Z,101680.50
2023-04-18T09:32:02.850Z,101682.40
2023-04-18T09:35:30.160Z,101687.63
2023-04-18T09:38:57.465Z,101688.84
2023-04-18T09:42:27.435Z,101692.83
2023-04-18T09:45:55.584Z,101692.98
2023-04-18T09:49:23.441Z,101695.00
2023-04-18T09:52:51.411Z,101699.34
2023-04-18T09:56:26.613Z,101693.51
2023-04-18T09:59:58.795Z,101689.48
2023-04-18T10:03:34.571Z,101687.11
2023-04-18T10:07:01.951Z,101690.20
2023-04-18T10:10:29.053Z,101694.85
2023-04-18T10:13:59.847Z,101683.71
2023-04-18T10:17:29.764Z,101688.02
2023-04-18T10:21:04.250Z,101684.88
2023-04-18T10:24:57.235Z,101683.10
2023-04-18T10:28:24.553Z,101674.56
2023-04-18T10:31:51.751Z,101676.05
2023-04-18T10:35:22.208Z,101686.27
2023-04-18T10:38:53.028Z,101671.86
2023-04-18T10:42:19.995Z,101674.89
2023-04-18T10:46:10.105Z,101676.08
2023-04-18T10:49:53.896Z,101673.59
2023-04-18T10:53:19.385Z,101670.50
2023-04-18T10:56:55.225Z,101674.86
2023-04-18T11:00:23.772Z,101664.60
2023-04-18T11:03:50.895Z,101660.27
2023-04-18T11:07:18.179Z,101665.73
2023-04-18T11:10:57.770Z,101666.27
2023-04-18T11:14:23.274Z,101660.61
2023-04-18T11:17:58.950Z,101655.00
2023-04-18T11:21:30.473Z,101658.70
2023-04-18T11:25:02.246Z,101659.90
2023-04-18T11:28:29.728Z,101661.39
2023-04-18T11:31:58.648Z,101660.09
2023-04-18T11:35:26.337Z,101652.30
2023-04-18T11:38:53.598Z,101659.98
2023-04-18T11:42:21.453Z,101658.73
2023-04-18T11:45:55.867Z,101652.23
2023-04-18T11:49:31.611Z,101655.59
2023-04-18T11:52:59.003Z,101661.77
2023-04-18T11:56:26.265Z,101657.73
2023-04-18T11:59:56.284Z,101652.66
2023-04-18T12:03:25.139Z,101652.42
2023-04-18T12:06:53.924Z,101651.55
2023-04-18T12:10:29.875Z,101658.23
2023-04-18T12:13:59.558Z,101661.88
2023-04-18T12:17:28.790Z,101653.88
2023-04-18T12:21:02.570Z,101651.65
2023-04-18T12:24:29.889Z,101648.45
2023-04-18T12:27:59.847Z,101649.59
2023-04-18T12:31:28.751Z,101644.25
2023-04-18T12:34:56.557Z,101639.97
2023-04-18T12:38:24.421Z,101635.30
2023-04-18T12:41:51.697Z,101629.49
2023-04-18T12:45:19.862Z,101626.23
2023-04-18T12:48:46.983Z,101626.84
2023-04-18T12:52:13.841Z,101622.91
2023-04-18T12:55:40.894Z,101619.44
2023-04-18T12:59:07.768Z,101621.79
2023-04-18T13:02:37.273Z,101616.79
2023-04-18T13:06:04.860Z,101614.36
2023-04-18T13:09:31.842Z,101616.58
2023-04-18T13:12:58.594Z,101611.18
2023-04-18T13:16:25.610Z,101610.21
2023-04-18T13:19:53.090Z,101609.40
2023-04-18T13:23:19.990Z,101604.80
2023-04-18T13:26:47.050Z,101609.70
2023-04-18T13:30:14.907Z,101595.41
2023-04-18T13:33:42.297Z,101594.95
2023-04-18T13:37:09.350Z,101592.69
2023-04-18T13:40:38.796Z,101589.35
2023-04-18T13:44:06.380Z,101596.90
2023-04-18T13:47:33.430Z,101595.64
2023-04-18T13:51:00.455Z,101597.00
2023-04-18T13:54:28.584Z,101595.20
2023-04-18T13:57:55.893Z,101596.85
2023-04-18T14:01:23.067Z,101592.11
2023-04-18T14:04:54.857Z,101592.26
2023-04-18T14:08:21.854Z,101591.85
2023-04-18T14:11:48.696Z,101593.67
2023-04-18T14:15:16.800Z,101594.16
2023-04-18T14:18:43.757Z,101596.79
2023-04-18T14:22:11.045Z,101602.83
2023-04-18T14:25:38.063Z,101592.48
2023-04-18T14:29:05.364Z,101595.23
2023-04-18T14:32:32.585Z,101597.75
2023-04-18T14:35:59.590Z,101595.48
2023-04-18T14:39:26.555Z,101594.59
2023-04-18T14:42:53.550Z,101589.77
2023-04-18T14:46:21.791Z,101593.35
2023-04-18T14:49:48.732Z,101590.98
2023-04-18T14:53:15.900Z,101589.87
2023-04-18T14:56:42.908Z,101595.25
2023-04-18T15:00:12.726Z,101593.48
2023-04-18T15:03:40.425Z,101588.63
2023-04-18T15:07:07.724Z,101588.35
2023-04-18T15:10:34.541Z,101582.36
2023-04-18T15:14:01.478Z,101585.66
2023-04-18T15:17:29.324Z,101580.10
2023-04-18T15:20:57.089Z,101585.40
2023-04-18T15:24:24.146Z,101584.33
2023-04-18T15:27:51.178Z,101585.59
2023-04-18T15:31:20.802Z,101581.00
2023-04-18T15:34:49.996Z,101572.15
2023-04-18T15:38:19.326Z,101571.64
2023-04-18T15:41:48.171Z,101571.61
2023-04-18T15:45:16.544Z,101573.02
2023-04-18T15:48:45.805Z,101569.00
2023-04-18T15:52:16.265Z,101566.98
2023-04-18T15:55:47.929Z,101571.31
2023-04-18T15:59:17.586Z,101573.11
2023-04-18T16:02:46.838Z,101570.20
2023-04-18T16:06:15.689Z,101575.75
2023-04-18T16:09:44.231Z,101577.19
2023-04-18T16:13:12.416Z,101566.19
2023-04-18T16:16:41.514Z,101579.36
2023-04-18T16:20:11.834Z,101576.35
2023-04-18T16:23:39.550Z,101572.45
2023-04-18T16:27:07.260Z,101574.93
2023-04-18T16:30:35.815Z,101568.27
2023-04-18T16:34:04.988Z,101566.61
2023-04-18T16:37:33.824Z,101568.73
2023-04-18T16:41:02.154Z,101568.00
2023-04-18T16:44:33.632Z,101563.14
2023-04-18T16:48:02.556Z,101559.90
2023-04-18T16:51:34.081Z,101561.81
2023-04-18T16:55:03.318Z,101561.44
2023-04-18T16:58:31.666Z,101560.48
2023-04-18T17:02:00.206Z,101562.30
2023-04-18T17:05:28.137Z,101563.94
2023-04-18T17:08:57.862Z,101567.50
2023-04-18T17:12:29.776Z,101564.56
2023-04-18T17:15:58.098Z,101565.33
2023-04-18T17:19:26.810Z,101560.77
2023-04-18T17:22:54.512Z,101568.91
2023-04-18T17:26:24.323Z,101570.35
2023-04-18T17:29:51.277Z,101569.00
2023-04-18T17:33:18.295Z,101566.91
2023-04-18T17:36:45.342Z,101568.50
2023-04-18T17:40:13.974Z,101568.34
2023-04-18T17:43:41.261Z,101568.04
2023-04-18T17:47:08.516Z,101568.79
2023-04-18T17:50:37.059Z,101567.52
2023-04-18T17:54:05.535Z,101563.48
2023-04-18T17:57:33.787Z,101570.86
2023-04-18T18:01:00.635Z,101575.99
2023-04-18T18:04:27.981Z,101579.85
2023-04-18T18:07:56.297Z,101582.10
2023-04-18T18:11:24.413Z,101583.55
2023-04-18T18:14:51.545Z,101582.13
2023-04-18T18:18:19.126Z,101587.35
2023-04-18T18:21:47.555Z,101589.58
2023-04-18T18:25:15.218Z,101589.70
2023-04-18T18:28:43.583Z,101594.03
2023-04-18T18:32:12.211Z,101594.52
2023-04-18T18:35:44.340Z,101596.58
2023-04-18T18:39:14.797Z,101594.59
2023-04-18T18:42:45.749Z,101596.27
2023-04-18T18:46:13.182Z,101595.84
2023-04-18T18:49:41.144Z,101605.58
2023-04-18T18:53:09.837Z,101603.06
2023-04-18T18:56:38.904Z,101606.14
2023-04-18T19:00:12.030Z,101605.38
2023-04-18T19:03:41.074Z,101599.48
2023-04-18T19:07:09.352Z,101600.57
2023-04-18T19:10:36.642Z,101599.07
2023-04-18T19:14:04.288Z,101596.48
2023-04-18T19:17:32.053Z,101598.27
2023-04-18T19:21:00.174Z,101595.73
2023-04-18T19:24:28.294Z,101599.44
2023-04-18T19:27:55.416Z,101595.98
2023-04-18T19:31:22.406Z,101592.70
2023-04-18T19:34:50.927Z,101607.78
2023-04-18T19:38:18.108Z,101599.40
2023-04-18T19:41:46.113Z,101600.67
2023-04-18T19:45:15.188Z,101599.63
2023-04-18T19:48:42.084Z,101604.84
2023-04-18T19:52:09.265Z,101602.36
2023-04-18T19:55:36.314Z,101596.39
2023-04-18T19:59:06.110Z,101602.80
2023-04-18T20:02:31.590Z,101594.48
2023-04-18T20:05:58.886Z,101593.98
2023-04-18T20:09:25.803Z,101598.88
2023-04-18T20:12:52.706Z,101603.63
2023-04-18T20:16:19.624Z,101603.98
2023-04-18T20:19:49.851Z,101599.86
2023-04-18T20:23:16.894Z,101599.30
2023-04-18T20:26:43.995Z,101595.71
2023-04-18T20:30:11.841Z,101597.22
2023-04-18T20:33:38.947Z,101598.08
2023-04-18T20:37:07.696Z,101599.98
2023-04-18T20:40:35.153Z,101605.36
2023-04-18T20:44:05.193Z,101605.87
2023-04-18T20:47:33.454Z,101605.33
2023-04-18T20:51:00.416Z,101598.34
2023-04-18T20:54:27.562Z,101596.48
2023-04-18T20:57:54.493Z,101595.98
2023-04-18T21:01:21.869Z,101593.91
2023-04-18T21:04:49.385Z,101592.55
2023-04-18T21:08:16.532Z,101594.84
2023-04-18T21:11:43.837Z,101593.52
2023-04-18T21:15:12.746Z,101587.06
2023-04-18T21:18:40.621Z,101584.96
2023-04-18T21:22:11.694Z,101582.23
2023-04-18T21:25:38.613Z,101583.52
2023-04-18T21:29:06.632Z,101582.84
2023-04-18T21:32:33.473Z,101579.09
2023-04-18T21:36:00.645Z,101570.13
2023-04-18T21:39:28.287Z,101580.09
2023-04-18T21:42:55.216Z,101574.56
2023-04-18T21:46:23.118Z,101569.71
2023-04-18T21:49:50.706Z,101577.42
2023-04-18T21:53:18.190Z,101573.11
2023-04-18T21:56:44.965Z,101568.86
2023-04-18T22:00:13.787Z,101572.21
2023-04-18T22:03:41.014Z,101564.61
2023-04-18T22:07:08.842Z,101559.73
2023-04-18T22:10:36.571Z,101557.32
2023-04-18T22:14:06.871Z,101554.89
2023-04-18T22:17:38.063Z,101555.08
2023-04-18T22:21:05.277Z,101555.94
2023-04-18T22:24:32.413Z,101548.45
2023-04-18T22:27:59.453Z,101540.61
2023-04-18T22:31:26.272Z,101543.13
2023-04-18T22:34:53.314Z,101542.20
2023-04-18T22:38:20.255Z,101537.61
2023-04-18T22:41:47.154Z,101536.56
2023-04-18T22:45:14.602Z,101534.08
2023-04-18T22:48:41.471Z,101524.66
2023-04-18T22:52:09.120Z,101518.04
2023-04-18T22:55:38.568Z,101518.52
2023-04-18T22:59:05.526Z,101515.38
2023-04-18T23:02:32.691Z,101514.32
2023-04-18T23:05:59.854Z,101505.61
2023-04-18T23:09:27.632Z,101503.69
2023-04-18T23:12:54.804Z,101500.69
2023-04-18T23:16:21.692Z,101495.95
2023-04-18T23:19:48.546Z,101493.15
2023-04-18T23:23:15.412Z,101484.76
2023-04-18T23:26:42.463Z,101483.11
2023-04-18T23:30:11.653Z,101482.45
2023-04-18T23:33:38.439Z,101483.74
2023-04-18T23:37:05.243Z,101481.72
2023-04-18T23:40:32.338Z,101483.29
2023-04-18T23:43:59.916Z,101479.41
2023-04-18T23:47:26.967Z,101478.02
2023-04-18T23:50:54.468Z,101473.98
2023-04-18T23:54:21.371Z,101475.15
2023-04-18T23:57:48.364Z,101470.07
